createdAt,value
2018-06-21T00:00:14.082Z,1.93
2018-06-21T00:02:42.748Z,1.67
2018-06-21T00:05:11.426Z,1.87
2018-06-21T00:07:40.160Z,1.73
2018-06-21T00:10:09.012Z,1.87
2018-06-21T00:12:37.670Z,1.67
2018-06-21T00:15:06.415Z,1.20
2018-06-21T00:17:35.067Z,1.43
2018-06-21T00:20:03.818Z,1.33
2018-06-21T00:22:32.547Z,1.40
2018-06-21T00:25:01.174Z,1.10
2018-06-21T00:27:29.866Z,1.37
2018-06-21T00:29:58.631Z,1.13
2018-06-21T00:32:27.324Z,1.17
2018-06-21T00:34:55.960Z,1.07
2018-06-21T00:37:24.690Z,1.20
2018-06-21T00:39:53.315Z,1.10
2018-06-21T00:42:21.999Z,0.83
2018-06-21T00:44:50.676Z,1.00
2018-06-21T00:47:19.344Z,1.23
2018-06-21T00:49:48.024Z,1.07
2018-06-21T00:52:16.681Z,0.60
2018-06-21T00:54:45.325Z,0.80
2018-06-21T00:57:14.045Z,0.93
2018-06-21T00:59:42.706Z,0.80
2018-06-21T01:02:11.501Z,0.80
2018-06-21T01:04:40.149Z,0.83
2018-06-21T01:07:08.798Z,0.63
2018-06-21T01:09:37.450Z,1.00
2018-06-21T01:12:06.137Z,0.93
2018-06-21T01:14:34.785Z,0.83
2018-06-21T01:17:03.434Z,0.70
2018-06-21T01:19:32.113Z,0.77
2018-06-21T01:22:00.839Z,0.60
2018-06-21T01:24:29.470Z,0.67
2018-06-21T01:26:58.969Z,0.70
2018-06-21T01:29:27.701Z,1.00
2018-06-21T01:31:56.440Z,0.90
2018-06-21T01:34:25.056Z,0.80
2018-06-21T01:36:53.701Z,0.90
2018-06-21T01:39:22.369Z,0.60
2018-06-21T01:41:51.030Z,0.53
2018-06-21T01:44:19.727Z,0.60
2018-06-21T01:46:48.419Z,1.07
2018-06-21T01:49:17.081Z,0.53
2018-06-21T01:51:45.738Z,1.03
2018-06-21T01:54:14.454Z,0.77
2018-06-21T01:56:43.167Z,0.80
2018-06-21T01:59:11.850Z,1.00
2018-06-21T02:01:40.503Z,1.17
2018-06-21T02:04:09.146Z,1.00
2018-06-21T02:06:37.793Z,1.20
2018-06-21T02:09:08.238Z,1.70
2018-06-21T02:11:36.548Z,1.63
2018-06-21T02:14:05.263Z,1.60
2018-06-21T02:16:33.916Z,2.17
2018-06-21T02:19:02.578Z,2.10
2018-06-21T02:21:31.235Z,2.37
2018-06-21T02:23:59.877Z,1.97
2018-06-21T02:26:28.601Z,2.40
2018-06-21T02:28:57.281Z,2.40
2018-06-21T02:31:25.914Z,2.37
2018-06-21T02:33:54.602Z,2.57
2018-06-21T02:36:23.274Z,2.67
2018-06-21T02:38:51.918Z,2.50
2018-06-21T02:41:20.650Z,2.53
2018-06-21T02:43:49.351Z,2.67
2018-06-21T02:46:18.128Z,2.70
2018-06-21T02:48:46.794Z,2.60
2018-06-21T02:51:15.450Z,2.53
2018-06-21T02:53:44.102Z,2.30
2018-06-21T02:56:12.774Z,2.60
2018-06-21T02:58:41.435Z,1.93
2018-06-21T03:01:10.115Z,2.30
2018-06-21T03:03:38.825Z,2.03
2018-06-21T03:06:07.545Z,1.33
2018-06-21T03:08:36.209Z,1.60
2018-06-21T03:11:05.010Z,0.70
2018-06-21T03:13:33.654Z,0.60
2018-06-21T03:16:02.281Z,0.57
2018-06-21T03:18:30.914Z,0.50
2018-06-21T03:20:59.593Z,0.10
2018-06-21T03:23:28.241Z,0.20
2018-06-21T03:25:56.892Z,0.10
2018-06-21T03:28:25.544Z,0.20
2018-06-21T03:30:53.849Z,0.20
2018-06-21T03:33:22.628Z,0.30
2018-06-21T03:35:51.304Z,0.20
2018-06-21T03:38:20.057Z,0.50
2018-06-21T03:40:48.730Z,0.23
2018-06-21T03:43:17.401Z,0.20
2018-06-21T03:45:46.090Z,0.23
2018-06-21T03:48:14.717Z,0.20
2018-06-21T03:50:43.433Z,0.20
2018-06-21T03:53:12.078Z,0.60
2018-06-21T03:55:40.729Z,0.30
2018-06-21T03:58:09.404Z,0.20
2018-06-21T04:00:38.070Z,0.20
2018-06-21T04:03:06.757Z,0.30
2018-06-21T04:05:35.470Z,0.10
2018-06-21T04:08:04.157Z,0.43
2018-06-21T04:10:32.851Z,0.30
2018-06-21T04:13:01.513Z,0.20
2018-06-21T04:15:30.162Z,0.30
2018-06-21T04:17:58.794Z,0.27
2018-06-21T04:20:27.513Z,0.30
2018-06-21T04:22:56.136Z,0.30
2018-06-21T04:25:24.860Z,0.40
2018-06-21T04:27:53.533Z,0.50
2018-06-21T04:30:22.305Z,0.40
2018-06-21T04:32:50.962Z,0.20
2018-06-21T04:35:19.626Z,0.50
2018-06-21T04:37:48.289Z,0.30
2018-06-21T04:40:16.922Z,0.37
2018-06-21T04:42:45.590Z,0.30
2018-06-21T04:45:14.278Z,0.30
2018-06-21T04:47:42.917Z,0.40
2018-06-21T04:50:11.608Z,0.30
2018-06-21T04:52:40.263Z,0.43
2018-06-21T04:55:08.901Z,0.40
2018-06-21T04:57:37.585Z,0.60
2018-06-21T05:00:06.253Z,0.40
2018-06-21T05:02:34.895Z,0.37
2018-06-21T05:05:03.930Z,0.30
2018-06-21T05:07:32.586Z,0.40
2018-06-21T05:10:01.318Z,0.30
2018-06-21T05:12:29.962Z,0.30
2018-06-21T05:14:58.654Z,0.50
2018-06-21T05:17:27.350Z,0.27
2018-06-21T05:19:56.062Z,0.27
2018-06-21T05:22:24.945Z,0.20
2018-06-21T05:24:53.593Z,0.43
2018-06-21T05:27:22.230Z,0.30
2018-06-21T05:29:50.901Z,0.23
2018-06-21T05:32:19.631Z,0.20
2018-06-21T05:34:48.381Z,0.40
2018-06-21T05:37:17.174Z,0.23
2018-06-21T05:39:45.860Z,0.20
2018-06-21T05:42:14.538Z,0.30
2018-06-21T05:44:43.283Z,0.23
2018-06-21T05:47:12.054Z,0.20
2018-06-21T05:49:40.718Z,0.30
2018-06-21T05:52:09.405Z,0.40
2018-06-21T05:54:38.377Z,0.20
2018-06-21T05:57:07.101Z,0.30
2018-06-21T05:59:35.780Z,0.40
2018-06-21T06:02:04.584Z,0.50
2018-06-21T06:04:33.205Z,0.30
2018-06-21T06:07:01.874Z,0.30
2018-06-21T06:09:30.531Z,0.40
2018-06-21T06:11:59.222Z,0.30
2018-06-21T06:14:27.900Z,0.20
2018-06-21T06:16:56.653Z,0.30
2018-06-21T06:19:25.854Z,0.30
2018-06-21T06:21:54.566Z,0.30
2018-06-21T06:24:23.290Z,0.20
2018-06-21T06:26:51.963Z,0.10
2018-06-21T06:29:20.633Z,0.30
2018-06-21T06:31:49.385Z,0.30
2018-06-21T06:34:18.069Z,0.20
2018-06-21T06:36:46.865Z,0.30
2018-06-21T06:39:22.711Z,0.20
2018-06-21T06:41:52.250Z,0.40
2018-06-21T06:44:20.973Z,0.20
2018-06-21T06:46:49.673Z,0.20
2018-06-21T06:49:18.370Z,0.30
2018-06-21T06:51:47.045Z,0.23
2018-06-21T06:54:15.826Z,0.20
2018-06-21T06:56:44.482Z,0.20
2018-06-21T06:59:13.182Z,0.20
2018-06-21T07:01:41.952Z,0.37
2018-06-21T07:04:10.695Z,0.53
2018-06-21T07:06:39.388Z,0.20
2018-06-21T07:09:08.082Z,0.47
2018-06-21T07:11:36.809Z,0.30
2018-06-21T07:14:05.932Z,0.37
2018-06-21T07:16:34.647Z,0.23
2018-06-21T07:19:03.499Z,0.20
2018-06-21T07:21:32.239Z,0.40
2018-06-21T07:24:00.925Z,0.30
2018-06-21T07:26:29.687Z,0.40
2018-06-21T07:28:58.398Z,0.30
2018-06-21T07:31:27.239Z,0.30
2018-06-21T07:33:55.942Z,0.30
2018-06-21T07:36:24.629Z,0.30
2018-06-21T07:38:53.367Z,0.30
2018-06-21T07:41:22.024Z,0.20
2018-06-21T07:43:50.761Z,0.40
2018-06-21T07:46:19.477Z,0.30
2018-06-21T07:48:48.117Z,0.40
2018-06-21T07:51:16.863Z,0.40
2018-06-21T07:53:45.637Z,0.30
2018-06-21T07:56:14.337Z,0.43
2018-06-21T07:58:42.985Z,0.30
2018-06-21T08:01:11.674Z,0.43
2018-06-21T08:03:40.334Z,0.50
2018-06-21T08:06:09.038Z,0.40
2018-06-21T08:08:37.746Z,0.30
2018-06-21T08:11:06.495Z,0.33
2018-06-21T08:13:35.209Z,0.40
2018-06-21T08:16:03.888Z,0.40
2018-06-21T08:18:32.578Z,0.50
2018-06-21T08:21:01.330Z,0.50
2018-06-21T08:23:30.170Z,0.57
2018-06-21T08:25:58.827Z,0.30
2018-06-21T08:28:27.546Z,0.40
2018-06-21T08:30:55.894Z,0.20
2018-06-21T08:33:24.620Z,0.30
2018-06-21T08:35:53.341Z,0.30
2018-06-21T08:38:22.010Z,0.37
2018-06-21T08:40:50.728Z,0.33
2018-06-21T08:43:19.438Z,0.63
2018-06-21T08:45:48.171Z,0.57
2018-06-21T08:48:16.894Z,0.37
2018-06-21T08:50:45.599Z,0.43
2018-06-21T08:53:14.418Z,0.53
2018-06-21T08:55:43.150Z,0.50
2018-06-21T08:58:11.856Z,0.47
2018-06-21T09:00:40.568Z,0.57
2018-06-21T09:03:09.263Z,0.50
2018-06-21T09:05:37.930Z,0.50
2018-06-21T09:08:06.662Z,0.50
2018-06-21T09:10:35.369Z,0.50
2018-06-21T09:13:04.038Z,0.60
2018-06-21T09:15:32.818Z,0.47
2018-06-21T09:18:01.534Z,0.60
2018-06-21T09:20:30.190Z,0.50
2018-06-21T09:22:58.977Z,0.50
2018-06-21T09:25:27.672Z,0.37
2018-06-21T09:27:56.354Z,0.40
2018-06-21T09:30:25.038Z,0.40
2018-06-21T09:32:53.691Z,0.30
2018-06-21T09:35:22.375Z,0.30
2018-06-21T09:37:56.361Z,0.40
2018-06-21T09:40:30.199Z,0.40
2018-06-21T09:43:03.970Z,0.57
2018-06-21T09:45:37.834Z,0.40
2018-06-21T09:48:11.769Z,0.50
2018-06-21T09:50:40.442Z,0.40
2018-06-21T09:53:09.118Z,0.60
2018-06-21T09:55:37.822Z,0.50
2018-06-21T09:58:06.517Z,0.40
2018-06-21T10:00:40.330Z,0.50
2018-06-21T10:03:09.099Z,0.30
2018-06-21T10:05:37.510Z,0.40
2018-06-21T10:08:06.232Z,0.30
2018-06-21T10:10:34.992Z,0.47
2018-06-21T10:13:03.309Z,0.60
2018-06-21T10:15:31.997Z,0.63
2018-06-21T10:18:01.377Z,0.50
2018-06-21T10:20:30.120Z,0.50
2018-06-21T10:22:58.800Z,0.63
2018-06-21T10:25:27.545Z,0.40
2018-06-21T10:27:56.227Z,0.57
2018-06-21T10:30:24.942Z,0.40
2018-06-21T10:32:53.910Z,0.60
2018-06-21T10:35:22.687Z,0.70
2018-06-21T10:37:51.371Z,0.53
2018-06-21T10:40:20.043Z,0.50
2018-06-21T10:42:48.681Z,0.50
2018-06-21T10:45:17.306Z,0.73
2018-06-21T10:47:45.968Z,0.50
2018-06-21T10:50:14.614Z,0.57
2018-06-21T10:52:43.395Z,0.50
2018-06-21T10:55:12.094Z,0.20
2018-06-21T10:57:40.805Z,0.60
2018-06-21T11:00:09.461Z,0.50
2018-06-21T11:02:38.245Z,0.60
2018-06-21T11:05:07.230Z,0.50
2018-06-21T11:07:35.936Z,0.40
2018-06-21T11:10:04.733Z,0.40
2018-06-21T11:12:33.410Z,0.40
2018-06-21T11:15:02.162Z,0.50
2018-06-21T11:17:30.839Z,0.40
2018-06-21T11:19:59.521Z,0.50
2018-06-21T11:22:28.231Z,0.40
2018-06-21T11:24:56.933Z,0.60
2018-06-21T11:27:25.639Z,0.60
2018-06-21T11:29:54.346Z,0.50
2018-06-21T11:32:23.062Z,0.60
2018-06-21T11:34:51.759Z,0.30
2018-06-21T11:37:20.491Z,0.30
2018-06-21T11:39:49.269Z,0.53
2018-06-21T11:42:17.929Z,0.37
2018-06-21T11:44:46.642Z,0.33
2018-06-21T11:47:15.327Z,0.40
2018-06-21T11:49:43.992Z,0.40
2018-06-21T11:52:12.746Z,0.40
2018-06-21T11:54:41.478Z,0.27
2018-06-21T11:57:10.165Z,0.47
2018-06-21T11:59:38.859Z,0.23
2018-06-21T12:02:07.509Z,0.30
2018-06-21T12:04:36.167Z,0.40
2018-06-21T12:07:04.947Z,0.20
2018-06-21T12:09:33.573Z,0.20
2018-06-21T12:12:02.257Z,0.30
2018-06-21T12:14:30.912Z,0.30
2018-06-21T12:16:59.622Z,0.30
2018-06-21T12:19:28.314Z,0.30
2018-06-21T12:21:56.962Z,0.30
2018-06-21T12:24:25.640Z,0.30
2018-06-21T12:26:54.267Z,0.30
2018-06-21T12:29:22.982Z,0.30
2018-06-21T12:31:51.628Z,0.37
2018-06-21T12:34:20.293Z,0.40
2018-06-21T12:36:48.950Z,0.20
2018-06-21T12:39:17.229Z,0.20
2018-06-21T12:41:45.915Z,0.10
2018-06-21T12:44:14.674Z,0.10
2018-06-21T12:46:43.489Z,0.20
2018-06-21T12:49:12.109Z,0.10
2018-06-21T12:51:40.816Z,0.20
2018-06-21T12:54:09.454Z,0.10
2018-06-21T12:56:37.781Z,0.30
2018-06-21T12:59:06.438Z,0.20
2018-06-21T13:01:35.106Z,0.20
2018-06-21T13:04:03.739Z,0.20
2018-06-21T13:06:32.443Z,0.30
2018-06-21T13:09:12.234Z,0.23
2018-06-21T13:12:55.117Z,0.20
2018-06-21T13:15:23.876Z,0.30
2018-06-21T13:17:52.489Z,0.10
2018-06-21T13:20:21.145Z,0.17
2018-06-21T13:22:49.816Z,0.20
2018-06-21T13:25:19.225Z,0.20
2018-06-21T13:28:04.780Z,0.20
2018-06-21T13:30:33.552Z,0.20
2018-06-21T13:33:02.224Z,0.10
2018-06-21T13:35:30.909Z,0.10
2018-06-21T13:37:59.548Z,0.10
2018-06-21T13:40:28.242Z,0.10
2018-06-21T13:42:57.025Z,0.10
2018-06-21T13:45:25.699Z,0.10
2018-06-21T13:48:00.130Z,0.20
2018-06-21T13:50:28.763Z,0.20
2018-06-21T13:52:57.423Z,0.20
2018-06-21T13:55:26.128Z,0.10
2018-06-21T13:58:18.077Z,0.20
2018-06-21T14:00:47.183Z,0.20
2018-06-21T14:03:15.842Z,0.10
2018-06-21T14:05:44.521Z,0.20
2018-06-21T14:08:13.293Z,0.30
2018-06-21T14:10:41.935Z,0.20
2018-06-21T14:13:10.622Z,0.20
2018-06-21T14:15:39.382Z,0.20
2018-06-21T14:18:08.034Z,0.20
2018-06-21T14:20:36.932Z,0.23
2018-06-21T14:23:55.259Z,0.17
2018-06-21T14:27:03.583Z,0.20
2018-06-21T14:29:34.166Z,0.20
2018-06-21T14:32:02.849Z,0.10
2018-06-21T14:34:31.467Z,0.13
2018-06-21T14:37:00.158Z,0.20
2018-06-21T14:39:28.843Z,0.23
2018-06-21T14:41:57.514Z,0.20
2018-06-21T14:44:26.218Z,0.20
2018-06-21T14:46:54.903Z,0.30
2018-06-21T14:49:23.607Z,0.10
2018-06-21T14:51:52.305Z,0.23
2018-06-21T14:54:20.990Z,0.20
2018-06-21T14:56:49.770Z,0.40
2018-06-21T14:59:18.488Z,0.30
2018-06-21T15:01:47.166Z,0.20
2018-06-21T15:04:15.886Z,0.30
2018-06-21T15:06:44.546Z,0.30
2018-06-21T15:09:14.064Z,0.27
2018-06-21T15:11:42.793Z,0.37
2018-06-21T15:14:11.504Z,0.30
2018-06-21T15:16:40.209Z,0.20
2018-06-21T15:19:08.885Z,0.30
2018-06-21T15:21:37.625Z,0.17
2018-06-21T15:24:06.441Z,0.20
2018-06-21T15:26:35.098Z,0.20
2018-06-21T15:29:03.831Z,0.20
2018-06-21T15:31:32.554Z,0.20
2018-06-21T15:34:01.206Z,0.10
2018-06-21T15:36:29.520Z,0.10
2018-06-21T15:38:58.829Z,0.20
2018-06-21T15:41:28.962Z,0.10
2018-06-21T15:43:57.636Z,0.20
2018-06-21T15:46:26.299Z,0.20
2018-06-21T15:48:55.197Z,0.20
2018-06-21T15:51:23.879Z,0.20
2018-06-21T15:53:52.659Z,0.10
2018-06-21T15:56:21.445Z,0.27
2018-06-21T15:58:50.191Z,0.20
2018-06-21T16:01:18.898Z,0.20
2018-06-21T16:03:47.205Z,0.20
2018-06-21T16:06:15.874Z,0.20
2018-06-21T16:08:44.552Z,0.20
2018-06-21T16:11:13.310Z,0.10
2018-06-21T16:13:41.637Z,0.27
2018-06-21T16:16:10.327Z,0.30
2018-06-21T16:18:38.998Z,0.30
2018-06-21T16:21:07.690Z,0.30
2018-06-21T16:23:36.364Z,0.30
2018-06-21T16:26:05.070Z,0.30
2018-06-21T16:28:33.781Z,0.40
2018-06-21T16:31:02.422Z,0.20
2018-06-21T16:33:31.193Z,0.30
2018-06-21T16:35:59.850Z,0.20
2018-06-21T16:38:28.600Z,0.20
2018-06-21T16:40:57.452Z,0.30
2018-06-21T16:43:26.168Z,0.40
2018-06-21T16:45:54.847Z,0.20
2018-06-21T16:48:23.549Z,0.30
2018-06-21T16:50:52.272Z,0.20
2018-06-21T16:53:20.645Z,0.20
2018-06-21T16:55:49.310Z,0.20
2018-06-21T16:58:18.055Z,0.20
2018-06-21T17:00:46.803Z,0.13
2018-06-21T17:03:15.484Z,0.20
2018-06-21T17:05:44.214Z,0.30
2018-06-21T17:08:12.902Z,0.30
2018-06-21T17:10:41.650Z,0.27
2018-06-21T17:13:10.344Z,0.70
2018-06-21T17:15:38.996Z,0.47
2018-06-21T17:18:07.768Z,0.30
2018-06-21T17:20:36.508Z,0.47
2018-06-21T17:23:04.858Z,0.10
2018-06-21T17:25:33.630Z,0.23
2018-06-21T17:28:03.309Z,0.30
2018-06-21T17:30:32.003Z,0.20
2018-06-21T17:33:00.775Z,0.27
2018-06-21T17:35:29.484Z,0.20
2018-06-21T17:37:58.302Z,0.20
2018-06-21T17:40:27.013Z,0.20
2018-06-21T17:42:55.739Z,0.20
2018-06-21T17:45:24.544Z,0.20
2018-06-21T17:47:53.225Z,0.20
2018-06-21T17:50:22.004Z,0.40
2018-06-21T17:52:50.746Z,0.53
2018-06-21T17:55:19.443Z,0.20
2018-06-21T17:57:48.193Z,0.30
2018-06-21T18:00:16.934Z,0.30
2018-06-21T18:02:45.642Z,0.40
2018-06-21T18:05:14.365Z,0.40
2018-06-21T18:07:42.673Z,0.30
2018-06-21T18:10:11.378Z,0.20
2018-06-21T18:12:40.075Z,0.20
2018-06-21T18:15:08.748Z,0.40
2018-06-21T18:17:37.515Z,0.20
2018-06-21T18:20:05.853Z,0.30
2018-06-21T18:22:34.597Z,0.30
2018-06-21T18:25:03.430Z,0.30
2018-06-21T18:27:32.112Z,0.30
2018-06-21T18:30:00.890Z,0.40
2018-06-21T18:32:29.585Z,0.40
2018-06-21T18:34:58.275Z,0.30
2018-06-21T18:37:26.962Z,0.30
2018-06-21T18:39:55.621Z,0.50
2018-06-21T18:42:24.272Z,0.20
2018-06-21T18:44:52.941Z,0.50
2018-06-21T18:47:21.590Z,0.40
2018-06-21T18:49:50.327Z,0.30
2018-06-21T18:52:19.013Z,0.37
2018-06-21T18:54:47.651Z,0.40
2018-06-21T18:57:16.461Z,0.40
2018-06-21T18:59:45.169Z,0.50
2018-06-21T19:02:13.793Z,0.30
2018-06-21T19:04:42.474Z,0.30
2018-06-21T19:07:16.515Z,0.20
2018-06-21T19:09:50.406Z,0.30
2018-06-21T19:12:19.081Z,0.20
2018-06-21T19:14:47.758Z,0.30
2018-06-21T19:17:16.472Z,0.30
2018-06-21T19:19:45.134Z,0.20
2018-06-21T19:22:13.777Z,0.30
2018-06-21T19:24:42.538Z,0.30
2018-06-21T19:27:11.186Z,0.20
2018-06-21T19:29:39.847Z,0.30
2018-06-21T19:32:09.074Z,0.20
2018-06-21T19:34:37.742Z,0.17
2018-06-21T19:37:06.596Z,0.20
2018-06-21T19:39:35.321Z,0.20
2018-06-21T19:42:04.019Z,0.10
2018-06-21T19:44:32.677Z,0.17
2018-06-21T19:47:01.322Z,0.10
2018-06-21T19:49:29.994Z,0.20
2018-06-21T19:51:58.721Z,0.20
2018-06-21T19:54:27.350Z,0.10
2018-06-21T19:56:56.078Z,0.10
2018-06-21T19:59:24.739Z,0.20
2018-06-21T20:01:53.395Z,0.20
2018-06-21T20:04:22.057Z,0.20
2018-06-21T20:06:50.766Z,0.17
2018-06-21T20:09:20.094Z,0.20
2018-06-21T20:11:48.783Z,0.20
2018-06-21T20:14:17.442Z,0.20
2018-06-21T20:16:46.122Z,0.20
2018-06-21T20:19:16.074Z,0.20
2018-06-21T20:21:44.906Z,0.30
2018-06-21T20:24:13.638Z,0.20
2018-06-21T20:26:42.390Z,0.30
2018-06-21T20:29:16.205Z,0.27
2018-06-21T20:31:44.851Z,0.20
2018-06-21T20:34:13.526Z,0.30
2018-06-21T20:36:42.190Z,0.20
2018-06-21T20:39:11.711Z,0.30
2018-06-21T20:41:40.566Z,0.50
2018-06-21T20:44:09.373Z,0.40
2018-06-21T20:46:38.018Z,0.20
2018-06-21T20:49:06.679Z,0.50
2018-06-21T20:51:35.380Z,0.30
2018-06-21T20:54:04.150Z,0.40
2018-06-21T20:56:32.837Z,0.30
2018-06-21T20:59:01.564Z,0.30
2018-06-21T21:01:30.226Z,0.40
2018-06-21T21:03:58.842Z,0.40
2018-06-21T21:06:27.495Z,0.30
2018-06-21T21:08:56.130Z,0.30
2018-06-21T21:11:24.762Z,0.40
2018-06-21T21:13:53.493Z,0.30
2018-06-21T21:16:22.145Z,0.40
2018-06-21T21:18:50.795Z,0.30
2018-06-21T21:21:19.469Z,0.40
2018-06-21T21:23:48.202Z,0.30
2018-06-21T21:26:16.866Z,0.20
2018-06-21T21:28:45.509Z,0.30
2018-06-21T21:31:14.160Z,0.37
2018-06-21T21:33:42.811Z,0.30
2018-06-21T21:36:11.575Z,0.30
2018-06-21T21:38:40.361Z,0.30
2018-06-21T21:41:09.015Z,0.20
2018-06-21T21:43:37.710Z,0.30
2018-06-21T21:46:06.362Z,0.30
2018-06-21T21:48:34.977Z,0.30
2018-06-21T21:51:03.680Z,0.30
2018-06-21T21:53:32.363Z,0.30
2018-06-21T21:56:01.030Z,0.30
2018-06-21T21:58:29.730Z,0.20
2018-06-21T22:01:00.115Z,0.40
2018-06-21T22:03:28.802Z,0.30
2018-06-21T22:05:57.526Z,0.60
2018-06-21T22:08:26.198Z,0.30
2018-06-21T22:10:54.869Z,0.50
2018-06-21T22:13:23.506Z,0.47
2018-06-21T22:15:52.143Z,0.40
2018-06-21T22:18:20.809Z,0.30
2018-06-21T22:20:49.511Z,0.30
2018-06-21T22:23:18.211Z,0.30
2018-06-21T22:25:46.862Z,0.87
2018-06-21T22:28:15.689Z,0.30
2018-06-21T22:30:44.406Z,0.40
2018-06-21T22:33:13.083Z,0.30
2018-06-21T22:35:41.752Z,0.30
2018-06-21T22:38:10.409Z,0.30
2018-06-21T22:40:39.141Z,0.20
2018-06-21T22:43:07.836Z,0.23
2018-06-21T22:45:36.490Z,0.30
2018-06-21T22:48:05.162Z,0.20
2018-06-21T22:50:33.848Z,0.20
2018-06-21T22:53:02.466Z,0.20
2018-06-21T22:55:31.098Z,0.20
2018-06-21T22:57:59.765Z,0.30
2018-06-21T23:00:28.422Z,0.20
2018-06-21T23:02:57.101Z,0.10
2018-06-21T23:05:25.803Z,0.13
2018-06-21T23:07:54.503Z,0.20
2018-06-21T23:10:23.155Z,0.10
2018-06-21T23:12:51.798Z,0.20
2018-06-21T23:15:20.469Z,0.30
2018-06-21T23:17:49.108Z,0.17
2018-06-21T23:20:17.824Z,0.20
2018-06-21T23:22:46.454Z,0.20
2018-06-21T23:25:15.126Z,0.17
2018-06-21T23:27:43.775Z,0.10
2018-06-21T23:30:12.457Z,0.10
2018-06-21T23:32:41.118Z,0.10
2018-06-21T23:35:09.946Z,0.10
2018-06-21T23:37:38.598Z,0.10
2018-06-21T23:40:07.302Z,0.20
2018-06-21T23:42:36.014Z,0.10
2018-06-21T23:45:04.717Z,0.10
2018-06-21T23:47:33.399Z,0.10
2018-06-21T23:50:02.058Z,0.10
2018-06-21T23:52:30.713Z,0.10
2018-06-21T23:54:59.403Z,0.10
2018-06-21T23:57:28.062Z,0.17
2018-06-21T23:59:56.656Z,0.10
